メインページ
METAR-TAF:

METAR-TAF

空港 :

Repulse Bay, ヌナブト準州, カナダ

緯度: 66-32N, 経度: 086-15W, 海抜: 24m

現時点の気象観測

当レポートは12時間50分前の23:00(UTC)に作成
南東の風 3kt
気温 -25°C
湿度 69%
気圧 1001 hPa
視程: 24.1km
高度8000ftの千切れ雲あり

METAR: CYUT 132300Z 13003KT 15SM BKN080 M25/M29 A2955 RMK AC6 LAST STFD OB/NXT 141500Z SLP011

時間: 05:50 (11:50 UTC)

予報

当レポートは17時間12分前の18:38(UTC)に作成
予報は13日の 19時(UTC)から 13日の 23時(UTC)まで有効
北西の風 5kt
視程: 10km
高度12000ftの千切れ雲あり
13日の 2000時(UTC)から
西/北西の風 5kt
視程: 10km
高度3000ftの千切れ雲あり
13日の 20時(UTC)から 13日の 23時(UTC)まで一時的に
視程: 6.4km
高度2000ftの千切れ雲あり
小雪

TAF: CYUT 131838Z 1319/1323 32005KT P6SM BKN120 FM132000 29005KT P6SM BKN030 TEMPO 1320/1323 4SM -SN BKN020 RMK NXT FCST WILL BE ISSUED AT 141645Z

4,000以上の空港の気象観測と天気予報(METAR報とTAF報)

利用可能な観測所は地図上に黄色い丸と赤い丸で示す。

丸の上にカーソルを重ねると観測所名を参照できる。

次にクリックすると気象観測と天気予報を参照できる。

マップの切り替え:黒色「×」印の緑ボタンをクリックして拡大、「-」印の緑ボタンをクリックして縮小、緑色の三角印をクリックして隣りの地図に切り替え


METAR-TAF: